Tropical Cyclones
[Index]
Main Index Home Page Stock Weather Photos Extreme Storms Discussion Storm News and Storm Chasing Reports Tropical Cyclones / Hurricanes / Typhoons Weather Data and Links Wild Fires / Bushfires Weather Observation Techniques Weather Picture Catalogue Tornado Pictures and Reports Stock Video Footage and DVDs for sale
Season 1957-1958 Tropical Cyclone 195815 Track Map
Season 1957-1958 Summaries: [BoM-AU] [JTWC-AU] [JTWC-SIO] [JTWC-SPAC] [JTWC-SH]
<<- Previous TC | JTWC 1957-1958 Season | Next TC ->>

click for intensity scale information  Lat/long Grid: Show Hide

 Date Labels: Show Hide

Joint Typhoon Warning Centre Cyclone Data

Name: 195815
Number: 322 / 5815

12 Feb 1958 12:00 UTC to 24 Feb 1958 18:00 UTC

    date/time    lat    long     hPa   cat  kts
1958-02-12 12   12.9   139.0                              
1958-02-12 18   13.3   138.5                              
1958-02-13 00   13.8   138.7                              
1958-02-13 06   14.2   139.3                              
1958-02-13 12   14.7   139.8                              
1958-02-13 18   15.2   140.1                              
1958-02-14 00   15.8   140.5                              
1958-02-14 06   16.4   140.8                              
1958-02-14 12   17.1   141.0                              
1958-02-14 18   17.6   141.4                              
1958-02-15 00   17.9   142.1                              
1958-02-15 06   16.5   143.6                              
1958-02-15 12   15.9   145.2                              
1958-02-15 18   16.8   146.7                              
1958-02-16 00   17.5   147.8                              
1958-02-16 06   17.8   148.5                              
1958-02-16 12   18.2   149.0                              
1958-02-16 18   18.9   149.4                              
1958-02-17 00   19.3   149.9                              
1958-02-17 06   19.0   150.5                              
1958-02-17 12   18.7   151.2                              
1958-02-17 18   18.7   152.5                              
1958-02-18 00   18.6   152.8                              
1958-02-18 06   17.0   151.9                              
1958-02-18 12   16.1   150.9                              
1958-02-18 18   16.3   150.0                              
1958-02-19 00   16.8   149.2                              
1958-02-19 06   17.4   149.2                              
1958-02-19 12   18.0   149.1                              
1958-02-19 18   18.7   148.6                              
1958-02-20 00   19.3   148.1                              
1958-02-20 06   19.7   147.7                              
1958-02-20 12   19.8   147.2                              
1958-02-20 18   19.4   147.0                              
1958-02-21 00   19.1   147.3                              
1958-02-21 06   19.0   148.1                              
1958-02-21 12   19.1   148.9                              
1958-02-21 18   19.5   149.4                              
1958-02-22 00   19.7   149.9                              
1958-02-22 06   20.0   150.3                              
1958-02-22 12   20.1   150.8                              
1958-02-22 18   20.0   151.1                              
1958-02-23 00   20.0   151.6                              
1958-02-23 06   20.5   153.2                              
1958-02-23 12   20.8   154.9                              
1958-02-23 18   20.6   156.4                              
1958-02-24 00   20.2   157.6                              
1958-02-24 06   19.7   158.2                              
1958-02-24 12   19.1   158.5                              
1958-02-24 18   18.2   158.6                              
Winds are 1-min average.

Tropical cyclone tracks developed by Michael Bath using data from the Joint Typhoon Warning Centre Best Tracks and Google Maps.


[Australian Severe Weather index] [Copyright Notice] [Email Contacts] [Search This Site] [Privacy Policy]
Document: tropical_cyclone_195815.htm Updated: 18 September 2016